createdAt,value
2022-09-24T00:01:25.792Z,5.13
2022-09-24T00:04:00.178Z,5.38
2022-09-24T00:06:29.246Z,5.28
2022-09-24T00:08:57.597Z,6.65
2022-09-24T00:11:26.636Z,6.85
2022-09-24T00:13:54.356Z,4.95
2022-09-24T00:16:25.971Z,5.47
2022-09-24T00:18:53.895Z,5.00
2022-09-24T00:21:27.366Z,4.82
2022-09-24T00:23:56.812Z,4.70
2022-09-24T00:26:42.941Z,4.97
2022-09-24T00:29:12.493Z,4.93
2022-09-24T00:31:40.214Z,5.35
2022-09-24T00:34:07.918Z,4.88
2022-09-24T00:36:35.018Z,5.07
2022-09-24T00:39:02.194Z,5.43
2022-09-24T00:41:31.637Z,5.03
2022-09-24T00:43:59.138Z,4.35
2022-09-24T00:46:34.073Z,4.63
2022-09-24T00:49:04.539Z,4.72
2022-09-24T00:51:32.864Z,4.88
2022-09-24T00:54:04.117Z,4.78
2022-09-24T00:56:34.116Z,5.32
2022-09-24T00:59:04.583Z,5.28
2022-09-24T01:01:31.713Z,4.88
2022-09-24T01:03:59.646Z,4.70
2022-09-24T01:06:27.303Z,4.82
2022-09-24T01:08:55.544Z,4.60
2022-09-24T01:11:26.842Z,5.03
2022-09-24T01:14:15.680Z,4.88
2022-09-24T01:17:34.026Z,4.70
2022-09-24T01:20:23.203Z,4.75
2022-09-24T01:22:53.157Z,5.10
2022-09-24T01:25:25.313Z,4.60
2022-09-24T01:28:08.092Z,4.45
2022-09-24T01:30:38.206Z,5.07
2022-09-24T01:33:08.685Z,4.47
2022-09-24T01:35:45.302Z,4.93
2022-09-24T01:38:18.399Z,5.32
2022-09-24T01:40:46.574Z,4.90
2022-09-24T01:43:14.883Z,4.68
2022-09-24T01:45:42.427Z,5.00
2022-09-24T01:48:09.872Z,4.85
2022-09-24T01:50:50.752Z,4.82
2022-09-24T01:53:20.822Z,4.32
2022-09-24T01:55:51.115Z,4.80
2022-09-24T01:58:23.008Z,5.57
2022-09-24T02:00:53.350Z,5.45
2022-09-24T02:03:29.903Z,5.43
2022-09-24T02:06:09.769Z,4.70
2022-09-24T02:08:41.963Z,4.68
2022-09-24T02:11:14.878Z,4.85
2022-09-24T02:14:02.118Z,4.95
2022-09-24T02:16:39.293Z,4.22
2022-09-24T02:19:09.407Z,5.07
2022-09-24T02:21:37.505Z,5.03
2022-09-24T02:24:17.000Z,4.85
2022-09-24T02:26:44.288Z,5.43
2022-09-24T02:29:11.979Z,5.38
2022-09-24T02:31:41.382Z,5.05
2022-09-24T02:34:20.900Z,4.65
2022-09-24T02:36:53.521Z,5.20
2022-09-24T02:39:20.686Z,4.38
2022-09-24T02:41:49.332Z,4.90
2022-09-24T02:44:16.886Z,5.28
2022-09-24T02:46:45.224Z,5.55
2022-09-24T02:49:14.125Z,4.93
2022-09-24T02:51:42.225Z,5.03
2022-09-24T02:54:10.113Z,4.80
2022-09-24T02:56:37.293Z,4.47
2022-09-24T02:59:04.658Z,5.13
2022-09-24T03:01:32.423Z,4.90
2022-09-24T03:03:59.733Z,4.78
2022-09-24T03:06:26.898Z,4.95
2022-09-24T03:08:54.050Z,5.38
2022-09-24T03:11:21.680Z,5.40
2022-09-24T03:13:49.428Z,5.28
2022-09-24T03:16:17.722Z,5.15
2022-09-24T03:18:46.384Z,5.40
2022-09-24T03:21:15.363Z,5.25
2022-09-24T03:23:42.493Z,4.97
2022-09-24T03:26:10.083Z,5.05
2022-09-24T03:28:37.324Z,5.00
2022-09-24T03:31:04.840Z,5.13
2022-09-24T03:33:32.001Z,5.32
2022-09-24T03:36:03.510Z,5.47
2022-09-24T03:38:30.987Z,5.68
2022-09-24T03:40:58.577Z,5.72
2022-09-24T03:43:26.162Z,4.90
2022-09-24T03:45:53.403Z,4.90
2022-09-24T03:48:21.721Z,5.20
2022-09-24T03:50:49.277Z,4.78
2022-09-24T03:53:16.783Z,5.43
2022-09-24T03:55:46.751Z,5.45
2022-09-24T03:58:15.630Z,5.05
2022-09-24T04:00:42.775Z,5.35
2022-09-24T04:03:10.200Z,5.38
2022-09-24T04:05:37.701Z,4.97
2022-09-24T04:08:07.830Z,4.75
2022-09-24T04:10:34.957Z,5.10
2022-09-24T04:13:02.778Z,5.20
2022-09-24T04:15:30.061Z,5.88
2022-09-24T04:17:58.654Z,5.68
2022-09-24T04:20:27.527Z,5.38
2022-09-24T04:22:56.205Z,5.68
2022-09-24T04:25:24.448Z,5.10
2022-09-24T04:27:56.131Z,5.70
2022-09-24T04:30:24.615Z,5.10
2022-09-24T04:32:52.032Z,6.07
2022-09-24T04:35:20.193Z,4.93
2022-09-24T04:37:47.926Z,6.13
2022-09-24T04:40:16.294Z,4.90
2022-09-24T04:42:46.274Z,4.57
2022-09-24T04:45:15.130Z,4.28
2022-09-24T04:47:42.284Z,4.78
2022-09-24T04:50:11.377Z,5.75
2022-09-24T04:52:39.238Z,5.38
2022-09-24T04:55:06.935Z,5.30
2022-09-24T04:57:35.896Z,4.85
2022-09-24T05:00:07.427Z,5.47
2022-09-24T05:02:34.636Z,4.45
2022-09-24T05:05:01.845Z,4.70
2022-09-24T05:07:29.018Z,4.78
2022-09-24T05:09:56.747Z,5.22
2022-09-24T05:12:23.839Z,5.10
2022-09-24T05:14:50.899Z,4.88
2022-09-24T05:17:18.920Z,5.18
2022-09-24T05:19:46.067Z,4.90
2022-09-24T05:22:13.474Z,5.22
2022-09-24T05:24:40.588Z,4.90
2022-09-24T05:27:09.726Z,5.30
2022-09-24T05:29:41.113Z,5.00
2022-09-24T05:32:10.426Z,5.40
2022-09-24T05:34:37.525Z,5.75
2022-09-24T05:37:04.601Z,5.20
2022-09-24T05:39:34.252Z,4.72
2022-09-24T05:42:04.243Z,4.80
2022-09-24T05:44:31.866Z,5.30
2022-09-24T05:46:59.563Z,4.78
2022-09-24T05:49:26.781Z,5.80
2022-09-24T05:51:53.966Z,4.60
2022-09-24T05:54:21.381Z,5.43
2022-09-24T05:56:48.459Z,4.95
2022-09-24T05:59:15.612Z,5.25
2022-09-24T06:01:42.799Z,5.25
2022-09-24T06:04:12.026Z,5.30
2022-09-24T06:06:39.092Z,5.03
2022-09-24T06:09:08.899Z,4.82
2022-09-24T06:11:40.103Z,5.18
2022-09-24T06:14:09.019Z,5.47
2022-09-24T06:16:36.750Z,5.45
2022-09-24T06:19:03.926Z,5.40
2022-09-24T06:21:31.015Z,5.80
2022-09-24T06:23:58.090Z,5.28
2022-09-24T06:26:26.284Z,5.18
2022-09-24T06:28:53.438Z,5.57
2022-09-24T06:31:20.734Z,5.22
2022-09-24T06:33:48.020Z,4.97
2022-09-24T06:36:15.217Z,5.20
2022-09-24T06:38:42.398Z,5.20
2022-09-24T06:41:10.053Z,5.65
2022-09-24T06:43:37.421Z,5.97
2022-09-24T06:46:04.977Z,5.05
2022-09-24T06:48:32.331Z,4.85
2022-09-24T06:50:59.467Z,5.63
2022-09-24T06:53:26.724Z,5.10
2022-09-24T06:55:57.130Z,5.80
2022-09-24T06:58:24.503Z,6.00
2022-09-24T07:00:54.288Z,5.95
2022-09-24T07:03:22.367Z,6.10
2022-09-24T07:05:49.490Z,5.30
2022-09-24T07:08:17.149Z,5.32
2022-09-24T07:10:52.895Z,5.35
2022-09-24T07:13:21.309Z,5.40
2022-09-24T07:15:50.025Z,5.55
2022-09-24T07:18:17.846Z,5.75
2022-09-24T07:20:45.393Z,5.50
2022-09-24T07:23:12.953Z,5.25
2022-09-24T07:25:40.108Z,5.78
2022-09-24T07:28:09.516Z,5.88
2022-09-24T07:30:37.841Z,5.95
2022-09-24T07:33:05.396Z,4.97
2022-09-24T07:35:32.500Z,4.93
2022-09-24T07:38:05.768Z,6.45
2022-09-24T07:40:36.896Z,6.07
2022-09-24T07:43:04.093Z,5.07
2022-09-24T07:45:31.494Z,5.28
2022-09-24T07:48:03.460Z,6.85
2022-09-24T07:50:35.307Z,5.35
2022-09-24T07:53:02.375Z,6.32
2022-09-24T07:55:29.464Z,5.72
2022-09-24T07:57:57.375Z,6.32
2022-09-24T08:00:24.880Z,5.72
2022-09-24T08:02:53.766Z,5.80
2022-09-24T08:05:20.944Z,7.05
2022-09-24T08:07:55.264Z,6.05
2022-09-24T08:10:23.680Z,6.43
2022-09-24T08:12:51.105Z,5.22
2022-09-24T08:15:18.560Z,6.47
2022-09-24T08:17:45.725Z,6.28
2022-09-24T08:20:13.006Z,6.00
2022-09-24T08:22:40.147Z,6.18
2022-09-24T08:25:07.796Z,6.75
2022-09-24T08:27:37.027Z,6.32
2022-09-24T08:30:05.158Z,6.35
2022-09-24T08:32:32.254Z,6.72
2022-09-24T08:34:59.490Z,5.80
2022-09-24T08:37:28.309Z,5.00
2022-09-24T08:39:55.790Z,6.40
2022-09-24T08:42:32.669Z,4.88
2022-09-24T08:45:19.345Z,6.03
2022-09-24T08:47:50.935Z,5.90
2022-09-24T08:50:21.560Z,6.00
2022-09-24T08:53:06.511Z,6.47
2022-09-24T08:55:38.445Z,7.07
2022-09-24T08:58:27.729Z,6.72
2022-09-24T09:01:10.090Z,6.38
2022-09-24T09:03:45.540Z,5.80
2022-09-24T09:06:18.435Z,6.45
2022-09-24T09:09:12.113Z,6.65
2022-09-24T09:11:41.116Z,6.10
2022-09-24T09:14:29.157Z,6.55
2022-09-24T09:17:24.935Z,6.53
2022-09-24T09:19:57.553Z,6.43
2022-09-24T09:22:36.124Z,6.60
2022-09-24T09:25:16.605Z,6.00
2022-09-24T09:27:44.023Z,6.38
2022-09-24T09:30:14.453Z,6.32
2022-09-24T09:32:58.637Z,6.47
2022-09-24T09:35:47.510Z,6.45
2022-09-24T09:38:31.257Z,6.07
2022-09-24T09:41:35.029Z,6.82
2022-09-24T09:44:12.203Z,6.30
2022-09-24T09:46:47.669Z,5.88
2022-09-24T09:49:15.483Z,6.78
2022-09-24T09:51:43.050Z,5.75
2022-09-24T09:54:11.565Z,6.13
2022-09-24T09:56:44.450Z,5.93
2022-09-24T09:59:11.452Z,6.55
2022-09-24T10:01:43.359Z,6.05
2022-09-24T10:04:40.864Z,5.32
2022-09-24T10:07:16.431Z,5.15
2022-09-24T10:09:45.111Z,6.15
2022-09-24T10:12:22.088Z,5.40
2022-09-24T10:15:03.784Z,5.35
2022-09-24T10:17:38.969Z,5.35
2022-09-24T10:20:31.196Z,6.47
2022-09-24T10:23:01.624Z,5.43
2022-09-24T10:25:29.842Z,6.50
2022-09-24T10:28:19.297Z,6.03
2022-09-24T10:30:51.772Z,5.85
2022-09-24T10:33:19.040Z,5.53
2022-09-24T10:35:46.247Z,4.95
2022-09-24T10:38:19.797Z,5.13
2022-09-24T10:40:47.763Z,4.63
2022-09-24T10:43:20.756Z,5.38
2022-09-24T10:46:17.990Z,4.80
2022-09-24T10:49:04.434Z,5.07
2022-09-24T10:51:59.814Z,5.00
2022-09-24T10:55:06.270Z,4.95
2022-09-24T10:57:55.763Z,4.57
2022-09-24T11:00:25.017Z,4.63
2022-09-24T11:03:24.487Z,4.57
2022-09-24T11:06:06.187Z,4.22
2022-09-24T11:09:21.569Z,4.07
2022-09-24T11:12:27.836Z,4.07
2022-09-24T11:15:19.345Z,3.67
2022-09-24T11:17:57.875Z,4.00
2022-09-24T11:20:39.478Z,3.78
2022-09-24T11:23:33.386Z,4.15
2022-09-24T11:26:15.364Z,4.80
2022-09-24T11:28:57.817Z,4.07
2022-09-24T11:31:40.391Z,4.07
2022-09-24T11:34:49.233Z,4.22
2022-09-24T11:37:39.249Z,4.07
2022-09-24T11:40:23.373Z,4.15
2022-09-24T11:43:28.088Z,4.85
2022-09-24T11:46:14.038Z,4.78
2022-09-24T11:49:13.183Z,4.35
2022-09-24T11:52:08.060Z,4.05
2022-09-24T11:54:43.774Z,4.40
2022-09-24T11:57:18.412Z,4.40
2022-09-24T12:00:08.440Z,4.28
2022-09-24T12:02:42.233Z,4.03
2022-09-24T12:05:14.128Z,4.30
2022-09-24T12:08:03.209Z,4.13
2022-09-24T12:10:46.843Z,3.67
2022-09-24T12:13:15.991Z,4.38
2022-09-24T12:15:52.785Z,3.85
2022-09-24T12:18:31.463Z,4.18
2022-09-24T12:21:09.191Z,5.00
2022-09-24T12:23:44.817Z,3.92
2022-09-24T12:26:16.308Z,3.90
2022-09-24T12:29:35.590Z,4.00
2022-09-24T12:32:31.450Z,4.25
2022-09-24T12:35:18.888Z,3.83
2022-09-24T12:37:47.609Z,4.13
2022-09-24T12:40:52.308Z,4.53
2022-09-24T12:43:46.095Z,4.45
2022-09-24T12:46:40.497Z,4.38
2022-09-24T12:49:27.706Z,3.95
2022-09-24T12:52:00.768Z,4.80
2022-09-24T12:54:30.332Z,4.18
2022-09-24T12:57:25.286Z,5.25
2022-09-24T13:00:00.472Z,4.33
2022-09-24T13:02:29.939Z,4.18
2022-09-24T13:05:05.536Z,4.35
2022-09-24T13:10:15.334Z,4.68
2022-09-24T13:12:43.399Z,4.38
2022-09-24T13:15:32.573Z,3.92
2022-09-24T13:18:04.330Z,4.13
2022-09-24T13:20:32.698Z,5.28
2022-09-24T13:23:14.787Z,4.95
2022-09-24T13:25:42.139Z,4.55
2022-09-24T13:28:37.655Z,4.10
2022-09-24T13:31:23.852Z,4.18
2022-09-24T13:33:54.987Z,3.88
2022-09-24T13:36:45.090Z,5.10
2022-09-24T13:39:28.069Z,4.05
2022-09-24T13:42:07.588Z,3.40
2022-09-24T13:44:37.487Z,4.22
2022-09-24T13:47:17.182Z,4.53
2022-09-24T13:49:47.009Z,3.88
2022-09-24T13:52:33.188Z,4.28
2022-09-24T13:55:05.980Z,3.90
2022-09-24T13:57:45.752Z,4.45
2022-09-24T14:00:16.568Z,3.70
2022-09-24T14:02:56.054Z,4.45
2022-09-24T14:05:23.382Z,4.25
2022-09-24T14:08:18.401Z,3.70
2022-09-24T14:10:51.036Z,4.10
2022-09-24T14:13:21.703Z,3.67
2022-09-24T14:16:10.033Z,3.58
2022-09-24T14:18:37.345Z,4.30
2022-09-24T14:21:26.155Z,4.15
2022-09-24T14:24:02.517Z,3.95
2022-09-24T14:26:40.972Z,4.15
2022-09-24T14:29:13.052Z,4.13
2022-09-24T14:31:51.146Z,3.80
2022-09-24T14:34:34.270Z,3.40
2022-09-24T14:37:17.369Z,3.63
2022-09-24T14:39:46.653Z,4.60
2022-09-24T14:42:21.218Z,3.67
2022-09-24T14:44:51.657Z,4.15
2022-09-24T14:47:30.404Z,4.10
2022-09-24T14:49:57.653Z,4.45
2022-09-24T14:52:32.168Z,4.85
2022-09-24T14:55:15.306Z,4.03
2022-09-24T14:57:47.574Z,3.75
2022-09-24T15:00:23.630Z,4.65
2022-09-24T15:03:13.265Z,4.18
2022-09-24T15:05:40.386Z,4.20
2022-09-24T15:08:22.493Z,4.18
2022-09-24T15:11:05.859Z,3.85
2022-09-24T15:13:37.590Z,4.47
2022-09-24T15:16:28.778Z,3.83
2022-09-24T15:19:13.848Z,4.18
2022-09-24T15:21:41.110Z,4.70
2022-09-24T15:24:08.184Z,4.43
2022-09-24T15:26:36.286Z,4.50
2022-09-24T15:29:03.843Z,4.30
2022-09-24T15:31:31.518Z,4.47
2022-09-24T15:33:58.919Z,5.40
2022-09-24T15:36:26.064Z,7.07
2022-09-24T15:38:58.513Z,5.25
2022-09-24T15:41:25.603Z,4.53
2022-09-24T15:43:56.790Z,5.13
2022-09-24T15:46:24.304Z,3.95
2022-09-24T15:48:51.509Z,4.50
2022-09-24T15:51:23.138Z,5.03
2022-09-24T15:53:50.711Z,5.05
2022-09-24T15:56:17.849Z,4.05
2022-09-24T15:58:45.217Z,4.43
2022-09-24T16:01:18.800Z,4.53
2022-09-24T16:03:46.074Z,5.18
2022-09-24T16:06:14.045Z,4.68
2022-09-24T16:08:42.325Z,4.18
2022-09-24T16:11:09.660Z,5.25
2022-09-24T16:13:36.850Z,4.40
2022-09-24T16:16:06.419Z,4.95
2022-09-24T16:18:33.777Z,5.07
2022-09-24T16:21:05.238Z,5.88
2022-09-24T16:23:32.322Z,5.53
2022-09-24T16:26:00.207Z,4.72
2022-09-24T16:28:27.796Z,6.25
2022-09-24T16:30:55.472Z,5.25
2022-09-24T16:33:22.919Z,5.35
2022-09-24T16:35:50.029Z,5.00
2022-09-24T16:38:22.563Z,5.25
2022-09-24T16:40:52.022Z,5.68
2022-09-24T16:43:19.304Z,6.07
2022-09-24T16:45:46.451Z,5.70
2022-09-24T16:48:13.854Z,5.38
2022-09-24T16:50:40.971Z,5.65
2022-09-24T16:53:08.062Z,6.25
2022-09-24T16:55:35.216Z,6.22
2022-09-24T16:58:02.275Z,6.75
2022-09-24T17:00:29.394Z,6.38
2022-09-24T17:02:56.541Z,5.78
2022-09-24T17:05:23.763Z,7.28
2022-09-24T17:07:50.865Z,7.15
2022-09-24T17:10:18.166Z,7.13
2022-09-24T17:12:49.875Z,5.70
2022-09-24T17:15:22.227Z,7.38
2022-09-24T17:17:50.754Z,7.55
2022-09-24T17:20:18.813Z,7.07
2022-09-24T17:22:48.075Z,7.78
2022-09-24T17:25:15.391Z,8.32
2022-09-24T17:27:42.512Z,8.35
2022-09-24T17:30:10.874Z,7.38
2022-09-24T17:32:37.991Z,7.78
2022-09-24T17:35:06.163Z,8.70
2022-09-24T17:37:33.814Z,6.63
2022-09-24T17:40:00.897Z,7.68
2022-09-24T17:42:28.099Z,8.57
2022-09-24T17:44:55.190Z,7.80
2022-09-24T17:47:22.268Z,8.27
2022-09-24T17:49:49.336Z,8.73
2022-09-24T17:52:16.615Z,8.60
2022-09-24T17:54:44.196Z,7.57
2022-09-24T17:57:11.338Z,8.90
2022-09-24T17:59:38.482Z,7.13
2022-09-24T18:02:06.690Z,7.97
2022-09-24T18:04:38.235Z,8.50
2022-09-24T18:07:05.469Z,7.82
2022-09-24T18:09:32.559Z,8.20
2022-09-24T18:12:04.404Z,7.43
2022-09-24T18:14:31.702Z,7.25
2022-09-24T18:16:59.866Z,7.43
2022-09-24T18:19:27.033Z,8.10
2022-09-24T18:21:56.115Z,7.82
2022-09-24T18:24:23.311Z,8.60
2022-09-24T18:26:51.853Z,8.50
2022-09-24T18:29:22.175Z,8.95
2022-09-24T18:31:51.277Z,8.77
2022-09-24T18:34:19.311Z,8.20
2022-09-24T18:36:46.740Z,7.10
2022-09-24T18:39:21.985Z,8.23
2022-09-24T18:41:52.127Z,7.70
2022-09-24T18:44:19.643Z,7.80
2022-09-24T18:46:46.931Z,6.85
2022-09-24T18:49:14.105Z,7.28
2022-09-24T18:51:41.288Z,6.78
2022-09-24T18:54:12.372Z,7.60
2022-09-24T18:56:40.198Z,7.68
2022-09-24T18:59:10.415Z,6.20
2022-09-24T19:01:38.909Z,7.60
2022-09-24T19:04:09.053Z,6.38
2022-09-24T19:06:37.598Z,6.00
2022-09-24T19:09:05.873Z,7.00
2022-09-24T19:11:34.520Z,6.85
2022-09-24T19:14:04.467Z,5.45
2022-09-24T19:16:31.602Z,8.15
2022-09-24T19:19:00.038Z,6.10
2022-09-24T19:21:27.228Z,5.78
2022-09-24T19:23:56.612Z,6.50
2022-09-24T19:26:26.467Z,6.85
2022-09-24T19:28:53.900Z,6.78
2022-09-24T19:31:32.390Z,8.30
2022-09-24T19:34:02.919Z,7.60
2022-09-24T19:36:32.624Z,7.68
2022-09-24T19:39:01.462Z,7.72
2022-09-24T19:41:29.097Z,9.13
2022-09-24T19:43:58.519Z,8.30
2022-09-24T19:46:27.158Z,8.27
2022-09-24T19:48:56.063Z,8.07
2022-09-24T19:51:30.980Z,9.82
2022-09-24T19:54:00.174Z,8.52
2022-09-24T19:56:27.665Z,10.95
2022-09-24T19:58:58.110Z,8.88
2022-09-24T20:01:30.581Z,8.43
2022-09-24T20:03:59.427Z,9.07
2022-09-24T20:06:28.793Z,8.68
2022-09-24T20:08:57.081Z,10.20
2022-09-24T20:11:25.893Z,10.43
2022-09-24T20:13:55.349Z,8.68
2022-09-24T20:16:26.044Z,9.13
2022-09-24T20:19:00.108Z,9.15
2022-09-24T20:21:29.518Z,9.35
2022-09-24T20:23:58.006Z,8.23
2022-09-24T20:26:44.939Z,8.70
2022-09-24T20:29:13.752Z,8.02
2022-09-24T20:31:42.299Z,8.85
2022-09-24T20:34:09.622Z,7.93
2022-09-24T20:36:36.756Z,8.98
2022-09-24T20:39:04.165Z,6.82
2022-09-24T20:41:31.249Z,7.68
2022-09-24T20:43:58.374Z,8.88
2022-09-24T20:46:28.533Z,7.22
2022-09-24T20:49:00.751Z,7.72
2022-09-24T20:51:29.101Z,7.70
2022-09-24T20:53:56.367Z,8.20
2022-09-24T20:56:24.912Z,7.75
2022-09-24T20:58:53.111Z,8.50
2022-09-24T21:01:24.727Z,8.18
2022-09-24T21:03:53.000Z,8.25
2022-09-24T21:06:23.494Z,7.50
2022-09-24T21:08:51.876Z,8.38
2022-09-24T21:11:21.332Z,8.07
2022-09-24T21:13:50.352Z,7.60
2022-09-24T21:16:22.598Z,8.25
2022-09-24T21:18:50.943Z,9.30
2022-09-24T21:21:21.146Z,8.80
2022-09-24T21:23:50.612Z,7.68
2022-09-24T21:26:22.665Z,9.02
2022-09-24T21:28:54.820Z,7.90
2022-09-24T21:31:24.898Z,8.50
2022-09-24T21:33:52.890Z,7.55
2022-09-24T21:36:21.915Z,8.45
2022-09-24T21:38:59.759Z,9.82
2022-09-24T21:41:29.429Z,8.75
2022-09-24T21:43:56.667Z,8.25
2022-09-24T21:46:24.698Z,10.00
2022-09-24T21:48:52.655Z,9.30
2022-09-24T21:51:23.818Z,7.22
2022-09-24T21:53:57.549Z,7.82
2022-09-24T21:56:25.002Z,7.25
2022-09-24T21:58:53.308Z,7.03
2022-09-24T22:01:28.745Z,7.57
2022-09-24T22:03:58.138Z,7.25
2022-09-24T22:06:28.982Z,6.93
2022-09-24T22:08:57.999Z,7.93
2022-09-24T22:11:28.063Z,7.38
2022-09-24T22:13:56.584Z,7.38
2022-09-24T22:16:23.699Z,7.32
2022-09-24T22:18:50.858Z,7.53
2022-09-24T22:21:17.971Z,7.70
2022-09-24T22:23:45.056Z,6.63
2022-09-24T22:26:14.556Z,7.93
2022-09-24T22:28:42.725Z,7.90
2022-09-24T22:31:13.354Z,6.00
2022-09-24T22:33:59.488Z,8.15
2022-09-24T22:36:31.167Z,7.72
2022-09-24T22:38:59.532Z,6.47
2022-09-24T22:41:30.604Z,7.18
2022-09-24T22:43:58.148Z,7.38
2022-09-24T22:46:27.104Z,6.45
2022-09-24T22:48:55.302Z,7.03
2022-09-24T22:51:23.375Z,7.25
2022-09-24T22:53:50.498Z,6.50
2022-09-24T22:56:19.508Z,6.18
2022-09-24T22:58:59.979Z,5.82
2022-09-24T23:01:30.301Z,5.47
2022-09-24T23:03:58.119Z,6.35
2022-09-24T23:06:25.324Z,6.35
2022-09-24T23:08:53.941Z,5.72
2022-09-24T23:11:24.278Z,6.18
2022-09-24T23:13:53.683Z,6.38
2022-09-24T23:16:23.845Z,6.53
2022-09-24T23:18:53.678Z,7.72
2022-09-24T23:21:22.377Z,8.57
2022-09-24T23:23:57.313Z,8.20
2022-09-24T23:26:25.785Z,6.43
2022-09-24T23:28:55.063Z,7.22
2022-09-24T23:31:28.252Z,5.80
2022-09-24T23:33:56.327Z,6.40
2022-09-24T23:36:24.422Z,6.85
2022-09-24T23:38:53.607Z,5.72
2022-09-24T23:41:21.993Z,6.15
2022-09-24T23:43:49.628Z,5.82
2022-09-24T23:46:17.579Z,5.47
2022-09-24T23:48:44.953Z,6.43
2022-09-24T23:51:12.300Z,6.20
2022-09-24T23:53:39.649Z,5.78
2022-09-24T23:56:07.334Z,6.40
2022-09-24T23:58:34.491Z,5.97
